createdAt,value
2022-10-12T05:31:30.310Z,93.10
2022-10-12T05:33:57.515Z,129.32
2022-10-12T05:36:24.727Z,114.22
2022-10-12T05:38:51.890Z,136.75
2022-10-12T05:41:19.092Z,111.20
2022-10-12T05:43:46.438Z,126.18
2022-10-12T05:46:14.750Z,99.75
2022-10-12T05:48:41.996Z,82.45
2022-10-12T05:51:10.379Z,73.40
2022-10-12T05:53:40.170Z,74.35
2022-10-12T05:56:09.987Z,75.78
2022-10-12T05:58:38.173Z,68.00
2022-10-12T06:01:09.701Z,70.00
2022-10-12T06:03:37.170Z,63.85
2022-10-12T06:06:11.456Z,65.35
2022-10-12T06:08:38.831Z,65.65
2022-10-12T06:11:07.587Z,64.07
2022-10-12T06:13:35.708Z,63.88
2022-10-12T06:16:04.786Z,73.40
2022-10-12T06:18:34.162Z,57.70
2022-10-12T06:21:31.902Z,62.03
2022-10-12T06:23:50.423Z,57.42
2022-10-12T06:26:17.995Z,55.47
2022-10-12T06:28:45.633Z,48.80
2022-10-12T06:31:14.335Z,48.83
2022-10-12T06:33:42.283Z,40.00
2022-10-12T06:36:10.134Z,45.88
2022-10-12T06:38:37.827Z,46.85
2022-10-12T06:41:05.308Z,42.15
2022-10-12T06:43:32.600Z,46.63
2022-10-12T06:46:02.002Z,46.03
2022-10-12T06:48:30.348Z,43.15
2022-10-12T06:50:57.863Z,42.92
2022-10-12T06:53:29.004Z,68.97
2022-10-12T06:55:56.440Z,53.85
2022-10-12T06:58:24.070Z,42.40
2022-10-12T07:00:52.565Z,49.58
2022-10-12T07:03:20.506Z,42.30
2022-10-12T07:05:47.920Z,45.55
2022-10-12T07:08:15.438Z,42.75
2022-10-12T07:10:43.249Z,42.65
2022-10-12T07:13:13.661Z,47.88
2022-10-12T07:15:41.113Z,49.50
2022-10-12T07:18:08.631Z,37.65
2022-10-12T07:20:36.576Z,41.03
2022-10-12T07:23:07.681Z,28.70
2022-10-12T07:25:35.093Z,36.35
2022-10-12T07:28:05.358Z,34.90
2022-10-12T07:30:36.088Z,30.55
2022-10-12T07:33:12.330Z,29.75
2022-10-12T07:35:56.947Z,30.35
2022-10-12T07:38:30.508Z,38.63
2022-10-12T07:41:01.405Z,41.90
2022-10-12T07:43:32.156Z,44.33
2022-10-12T07:45:59.527Z,48.15
2022-10-12T07:48:26.822Z,48.65
2022-10-12T07:50:55.400Z,47.40
2022-10-12T07:53:38.108Z,42.08
2022-10-12T07:56:15.303Z,27.83
2022-10-12T07:59:01.127Z,33.90
2022-10-12T08:01:33.255Z,35.83
2022-10-12T08:04:03.847Z,30.87
2022-10-12T08:06:34.113Z,27.52
2022-10-12T08:09:02.803Z,21.42
2022-10-12T08:11:31.490Z,28.45
2022-10-12T08:14:00.397Z,28.77
2022-10-12T08:16:28.305Z,27.35
2022-10-12T08:18:56.014Z,22.20
2022-10-12T08:21:24.611Z,34.85
2022-10-12T08:23:55.891Z,23.63
2022-10-12T08:26:27.495Z,41.75
2022-10-12T08:28:58.000Z,23.90
2022-10-12T08:31:29.187Z,28.75
2022-10-12T08:33:58.633Z,38.22
2022-10-12T08:36:28.527Z,23.63
2022-10-12T08:38:56.369Z,24.90
2022-10-12T08:41:39.629Z,29.80
2022-10-12T08:44:25.600Z,25.73
2022-10-12T08:47:00.080Z,42.25
2022-10-12T08:49:29.978Z,37.38
2022-10-12T08:52:01.612Z,30.00
2022-10-12T08:54:37.887Z,36.15
2022-10-12T09:03:31.576Z,27.00
2022-10-12T09:06:23.804Z,23.85
2022-10-12T09:12:49.350Z,23.90
2022-10-12T09:15:23.046Z,25.02
2022-10-12T09:18:00.210Z,31.98
2022-10-12T09:20:35.592Z,26.98
2022-10-12T09:26:18.518Z,36.55
2022-10-12T09:29:00.491Z,39.58
2022-10-12T09:32:08.007Z,28.30
2022-10-12T09:34:36.338Z,22.38
2022-10-12T09:37:15.536Z,22.77
2022-10-12T09:39:43.848Z,28.98
2022-10-12T09:42:12.741Z,29.30
2022-10-12T09:44:47.858Z,20.25
2022-10-12T09:47:29.751Z,26.05
2022-10-12T09:56:16.075Z,19.42
2022-10-12T09:58:56.248Z,22.33
2022-10-12T10:01:37.145Z,19.70
2022-10-12T10:04:37.815Z,21.88
2022-10-12T10:07:36.519Z,18.73
2022-10-12T10:10:30.146Z,21.40
2022-10-12T10:13:04.190Z,19.25
2022-10-12T10:15:34.721Z,17.08
2022-10-12T10:21:51.224Z,19.30
2022-10-12T10:24:31.862Z,25.10
2022-10-12T10:27:06.136Z,26.73
2022-10-12T10:30:04.775Z,13.25
2022-10-12T10:32:49.509Z,17.85
2022-10-12T10:35:32.550Z,19.73
2022-10-12T10:38:16.438Z,21.77
2022-10-12T10:40:52.956Z,18.25
2022-10-12T10:43:28.162Z,16.60
2022-10-12T10:46:00.505Z,15.30
2022-10-12T10:48:35.270Z,16.75
2022-10-12T10:51:05.623Z,17.58
2022-10-12T10:53:54.542Z,18.15
2022-10-12T10:56:30.050Z,17.33
2022-10-12T10:59:07.592Z,17.75
2022-10-12T11:02:01.887Z,21.48
2022-10-12T11:04:41.377Z,18.45
2022-10-12T11:07:24.249Z,18.25
2022-10-12T11:09:56.143Z,15.75
2022-10-12T11:12:31.321Z,11.82
2022-10-12T11:15:08.186Z,13.50
2022-10-12T11:17:44.047Z,30.63
2022-10-12T11:20:43.651Z,21.20
2022-10-12T11:23:20.860Z,17.00
2022-10-12T11:26:15.838Z,13.50
2022-10-12T11:28:44.087Z,19.38
2022-10-12T11:31:19.831Z,17.40
2022-10-12T11:33:48.860Z,14.85
2022-10-12T11:36:22.933Z,11.80
2022-10-12T11:38:56.075Z,21.23
2022-10-12T11:41:36.239Z,19.25
2022-10-12T11:44:42.878Z,14.05
2022-10-12T11:47:17.997Z,20.63
2022-10-12T11:50:13.980Z,22.30
2022-10-12T11:52:44.641Z,22.75
2022-10-12T11:55:52.922Z,15.00
2022-10-12T11:58:48.598Z,19.05
2022-10-12T12:01:45.446Z,18.58
2022-10-12T12:07:49.754Z,14.45
2022-10-12T12:10:41.449Z,21.95
2022-10-12T12:18:34.101Z,28.70
2022-10-12T12:21:07.229Z,17.60
2022-10-12T12:26:17.081Z,15.90
2022-10-12T12:28:50.907Z,19.75
2022-10-12T12:31:28.613Z,20.88
2022-10-12T12:34:17.517Z,21.35
2022-10-12T12:36:47.720Z,14.95
2022-10-12T12:39:32.682Z,12.98
2022-10-12T12:42:04.214Z,21.15
2022-10-12T12:47:51.449Z,17.30
2022-10-12T12:50:31.970Z,34.70
2022-10-12T12:53:06.843Z,15.98
2022-10-12T12:55:56.685Z,10.60
2022-10-12T13:01:48.626Z,16.55
2022-10-12T13:04:45.040Z,22.15
2022-10-12T13:07:43.232Z,18.67
2022-10-12T13:10:29.639Z,18.42
2022-10-12T13:13:26.662Z,21.73
2022-10-12T13:16:32.589Z,29.30
2022-10-12T13:19:10.005Z,19.77
2022-10-12T13:21:41.334Z,21.48
2022-10-12T13:24:31.255Z,22.65
2022-10-12T13:27:13.209Z,22.85
2022-10-12T13:30:06.221Z,16.25
2022-10-12T13:33:03.075Z,17.13
2022-10-12T13:35:48.138Z,31.42
2022-10-12T13:41:14.530Z,18.27
2022-10-12T13:46:59.135Z,14.43
2022-10-12T13:49:41.397Z,18.75
2022-10-12T13:54:50.381Z,15.77
2022-10-12T13:57:42.105Z,21.73
2022-10-12T14:00:19.800Z,16.77
2022-10-12T14:03:06.500Z,14.10
2022-10-12T14:05:42.135Z,30.90
2022-10-12T14:08:24.869Z,17.55
2022-10-12T14:10:53.278Z,21.48
2022-10-12T14:13:31.075Z,17.15
2022-10-12T14:16:00.272Z,14.05
2022-10-12T14:18:44.945Z,17.13
2022-10-12T14:21:23.635Z,25.45
2022-10-12T14:23:54.140Z,15.80
2022-10-12T14:26:43.414Z,13.82
2022-10-12T14:34:49.059Z,11.15
2022-10-12T14:40:00.289Z,25.42
2022-10-12T14:42:30.837Z,9.32
2022-10-12T14:44:58.133Z,12.55
2022-10-12T14:47:37.511Z,16.88
2022-10-12T14:50:08.476Z,14.77
2022-10-12T14:52:43.157Z,14.55
2022-10-12T14:55:24.124Z,30.58
2022-10-12T14:57:51.993Z,22.40
2022-10-12T15:00:23.766Z,12.48
2022-10-12T15:02:52.872Z,16.77
2022-10-12T15:05:22.094Z,12.38
2022-10-12T15:07:49.948Z,16.55
2022-10-12T15:10:19.556Z,14.07
2022-10-12T15:12:46.818Z,17.80
2022-10-12T15:15:49.216Z,10.55
2022-10-12T15:18:16.613Z,22.23
2022-10-12T15:20:49.043Z,18.85
2022-10-12T15:23:16.789Z,13.30
2022-10-12T15:25:50.156Z,11.05
2022-10-12T15:28:17.965Z,17.08
2022-10-12T15:31:11.734Z,14.73
2022-10-12T15:33:32.870Z,10.18
2022-10-12T15:36:00.002Z,11.23
2022-10-12T15:38:27.190Z,16.23
2022-10-12T15:40:57.939Z,11.38
2022-10-12T15:43:25.913Z,19.17
2022-10-12T15:45:53.302Z,15.93
2022-10-12T15:48:20.484Z,22.70
2022-10-12T15:50:49.338Z,16.05
2022-10-12T15:53:21.141Z,19.30
2022-10-12T15:55:48.307Z,19.60
2022-10-12T15:58:15.861Z,16.70
